createdAt,value
2018-10-09T00:00:30.152Z,10.70
2018-10-09T00:02:59.665Z,7.67
2018-10-09T00:05:29.520Z,10.10
2018-10-09T00:07:59.315Z,11.30
2018-10-09T00:10:28.908Z,9.57
2018-10-09T00:12:58.715Z,13.83
2018-10-09T00:15:28.299Z,11.70
2018-10-09T00:17:57.960Z,9.43
2018-10-09T00:20:28.105Z,9.08
2018-10-09T00:22:59.214Z,7.73
2018-10-09T00:25:28.771Z,10.30
2018-10-09T00:27:58.644Z,10.30
2018-10-09T00:30:28.475Z,9.57
2018-10-09T00:32:58.110Z,9.43
2018-10-09T00:35:27.779Z,7.47
2018-10-09T00:37:57.481Z,8.70
2018-10-09T00:40:27.151Z,7.73
2018-10-09T00:42:56.709Z,9.47
2018-10-09T00:45:26.374Z,10.37
2018-10-09T00:47:55.929Z,9.47
2018-10-09T00:50:25.602Z,10.90
2018-10-09T00:52:55.210Z,10.83
2018-10-09T00:55:25.691Z,20.05
2018-10-09T00:57:56.521Z,45.60
2018-10-09T01:00:27.370Z,24.33
2018-10-09T01:02:57.972Z,10.32
2018-10-09T01:05:27.593Z,10.50
2018-10-09T01:07:57.369Z,8.93
2018-10-09T01:10:27.001Z,12.37
2018-10-09T01:12:56.744Z,7.80
2018-10-09T01:15:26.500Z,11.17
2018-10-09T01:17:56.289Z,7.63
2018-10-09T01:20:27.895Z,9.77
2018-10-09T01:22:57.504Z,8.03
2018-10-09T01:25:27.254Z,13.60
2018-10-09T01:27:56.820Z,12.60
2018-10-09T01:30:26.555Z,10.33
2018-10-09T01:32:56.151Z,8.43
2018-10-09T01:35:25.935Z,10.93
2018-10-09T01:37:55.546Z,7.17
2018-10-09T01:40:25.141Z,8.97
2018-10-09T01:42:54.852Z,9.58
2018-10-09T01:45:24.387Z,8.40
2018-10-09T01:47:54.171Z,9.03
2018-10-09T01:50:23.771Z,10.53
2018-10-09T01:52:53.716Z,9.03
2018-10-09T01:55:23.276Z,11.00
2018-10-09T01:57:52.799Z,6.93
2018-10-09T02:00:22.320Z,7.87
2018-10-09T02:02:51.877Z,7.90
2018-10-09T02:05:21.543Z,9.33
2018-10-09T02:07:52.095Z,9.85
2018-10-09T02:10:22.876Z,9.40
2018-10-09T02:12:52.416Z,10.43
2018-10-09T02:15:22.085Z,6.63
2018-10-09T02:17:51.827Z,9.93
2018-10-09T02:20:21.482Z,9.97
2018-10-09T02:22:51.081Z,9.68
2018-10-09T02:25:20.618Z,11.57
2018-10-09T02:27:50.232Z,9.80
2018-10-09T02:30:19.736Z,8.60
2018-10-09T02:32:49.275Z,10.17
2018-10-09T02:35:18.892Z,9.63
2018-10-09T02:37:48.458Z,8.90
2018-10-09T02:40:18.036Z,10.58
2018-10-09T02:42:47.707Z,9.93
2018-10-09T02:45:17.258Z,8.10
2018-10-09T02:47:46.798Z,11.43
2018-10-09T02:50:16.533Z,9.25
2018-10-09T02:52:46.131Z,11.33
2018-10-09T02:55:15.651Z,9.60
2018-10-09T02:57:45.213Z,8.90
2018-10-09T03:00:14.788Z,9.13
2018-10-09T03:02:44.488Z,8.15
2018-10-09T03:05:14.026Z,8.80
2018-10-09T03:07:44.776Z,10.05
2018-10-09T03:10:14.928Z,10.80
2018-10-09T03:12:44.786Z,8.45
2018-10-09T03:15:14.736Z,9.10
2018-10-09T03:17:45.110Z,9.10
2018-10-09T03:20:14.792Z,11.67
2018-10-09T03:22:44.436Z,9.97
2018-10-09T03:25:14.036Z,9.67
2018-10-09T03:27:43.678Z,9.17
2018-10-09T03:30:13.428Z,10.70
2018-10-09T03:32:43.023Z,10.10
2018-10-09T03:35:12.715Z,10.27
2018-10-09T03:37:42.285Z,11.13
2018-10-09T03:40:11.866Z,7.93
2018-10-09T03:42:41.658Z,11.57
2018-10-09T03:45:11.331Z,8.13
2018-10-09T03:47:40.872Z,7.03
2018-10-09T03:50:10.471Z,6.77
2018-10-09T03:52:40.038Z,9.17
2018-10-09T03:55:09.706Z,10.23
2018-10-09T03:57:39.352Z,11.60
2018-10-09T04:00:09.230Z,8.13
2018-10-09T04:02:39.063Z,9.57
2018-10-09T04:05:08.911Z,11.50
2018-10-09T04:07:38.740Z,9.47
2018-10-09T04:10:08.392Z,10.90
2018-10-09T04:12:38.094Z,12.10
2018-10-09T04:15:07.967Z,13.13
2018-10-09T04:17:37.846Z,14.00
2018-10-09T04:20:08.257Z,14.53
2018-10-09T04:22:37.983Z,10.77
2018-10-09T04:25:08.337Z,13.32
2018-10-09T04:27:38.994Z,9.70
2018-10-09T04:30:09.668Z,10.06
2018-10-09T04:32:39.347Z,11.87
2018-10-09T04:35:08.977Z,13.08
2018-10-09T04:37:38.596Z,12.47
2018-10-09T04:40:08.450Z,12.47
2018-10-09T04:42:38.073Z,16.82
2018-10-09T04:45:08.094Z,10.87
2018-10-09T04:47:37.743Z,11.00
2018-10-09T04:50:07.391Z,11.63
2018-10-09T04:52:37.020Z,12.13
2018-10-09T04:55:06.707Z,11.00
2018-10-09T04:57:36.297Z,10.57
2018-10-09T05:00:06.242Z,14.18
2018-10-09T05:02:35.963Z,13.77
2018-10-09T05:05:06.065Z,14.10
2018-10-09T05:07:35.652Z,13.63
2018-10-09T05:10:05.562Z,14.67
2018-10-09T05:12:35.245Z,12.93
2018-10-09T05:15:04.982Z,15.37
2018-10-09T05:17:34.956Z,13.00
2018-10-09T05:20:05.743Z,13.90
2018-10-09T05:22:35.304Z,12.20
2018-10-09T05:25:05.437Z,16.27
2018-10-09T05:27:36.482Z,15.80
2018-10-09T05:30:06.267Z,16.93
2018-10-09T05:32:35.967Z,12.53
2018-10-09T05:35:05.734Z,9.90
2018-10-09T05:37:36.610Z,10.80
2018-10-09T05:45:03.205Z,14.17
2018-10-09T05:47:32.845Z,15.53
2018-10-09T05:50:02.398Z,14.40
2018-10-09T05:52:32.179Z,14.17
2018-10-09T05:55:02.203Z,14.27
2018-10-09T05:57:31.775Z,20.10
2018-10-09T06:00:01.331Z,28.70
2018-10-09T06:02:30.956Z,52.10
2018-10-09T06:05:00.658Z,21.37
2018-10-09T06:07:30.461Z,14.00
2018-10-09T06:10:00.162Z,14.25
2018-10-09T06:12:29.824Z,24.30
2018-10-09T06:14:59.412Z,17.55
2018-10-09T06:17:29.002Z,15.73
2018-10-09T06:19:58.777Z,17.33
2018-10-09T06:22:28.504Z,18.30
2018-10-09T06:24:58.087Z,19.13
2018-10-09T06:27:27.806Z,20.52
2018-10-09T06:29:57.475Z,19.00
2018-10-09T06:32:27.223Z,19.43
2018-10-09T06:34:56.827Z,18.93
2018-10-09T06:37:26.410Z,17.77
2018-10-09T06:39:56.844Z,21.17
2018-10-09T06:47:23.630Z,22.13
2018-10-09T06:49:53.496Z,14.30
2018-10-09T06:52:23.236Z,21.97
2018-10-09T06:54:52.978Z,24.17
2018-10-09T06:57:22.581Z,24.07
2018-10-09T06:59:52.135Z,29.40
2018-10-09T07:02:21.756Z,28.33
2018-10-09T07:04:51.401Z,54.80
2018-10-09T07:07:21.084Z,62.87
2018-10-09T07:09:50.692Z,39.07
2018-10-09T07:12:20.397Z,27.30
2018-10-09T07:14:50.137Z,23.30
2018-10-09T07:17:19.706Z,24.93
2018-10-09T07:19:49.437Z,26.70
2018-10-09T07:22:19.159Z,29.17
2018-10-09T07:24:48.738Z,31.77
2018-10-09T07:27:18.548Z,26.60
2018-10-09T07:29:48.165Z,22.30
2018-10-09T07:32:17.863Z,34.70
2018-10-09T07:34:47.612Z,26.87
2018-10-09T07:37:17.316Z,43.33
2018-10-09T07:39:47.254Z,51.00
2018-10-09T07:42:17.694Z,30.65
2018-10-09T07:44:48.639Z,29.25
2018-10-09T07:47:19.449Z,27.77
2018-10-09T07:49:50.373Z,22.50
2018-10-09T07:52:21.019Z,24.65
2018-10-09T07:55:50.638Z,27.27
2018-10-09T07:58:20.258Z,28.80
2018-10-09T08:00:49.938Z,32.13
2018-10-09T08:03:19.550Z,31.90
2018-10-09T08:05:49.512Z,32.17
2018-10-09T08:08:19.370Z,31.43
2018-10-09T08:10:49.246Z,27.10
2018-10-09T08:13:19.842Z,35.20
2018-10-09T08:15:49.889Z,28.30
2018-10-09T08:18:19.759Z,28.60
2018-10-09T08:20:49.432Z,25.33
2018-10-09T08:23:19.355Z,34.03
2018-10-09T08:25:49.013Z,26.97
2018-10-09T08:28:18.674Z,46.30
2018-10-09T08:30:48.433Z,29.57
2018-10-09T08:33:18.113Z,24.80
2018-10-09T08:35:47.877Z,28.13
2018-10-09T08:38:17.494Z,26.42
2018-10-09T08:40:47.423Z,25.43
2018-10-09T08:43:17.133Z,23.20
2018-10-09T08:45:46.865Z,21.57
2018-10-09T08:48:16.629Z,22.67
2018-10-09T08:50:46.449Z,25.83
2018-10-09T08:53:16.318Z,22.52
2018-10-09T08:55:45.977Z,29.42
2018-10-09T08:58:15.874Z,26.00
2018-10-09T09:00:45.522Z,27.43
2018-10-09T09:03:15.217Z,24.87
2018-10-09T09:05:44.922Z,24.43
2018-10-09T09:08:14.709Z,28.40
2018-10-09T09:10:44.328Z,29.27
2018-10-09T09:13:14.099Z,31.80
2018-10-09T09:15:43.880Z,27.67
2018-10-09T09:18:13.708Z,25.37
2018-10-09T09:20:43.952Z,24.60
2018-10-09T09:23:13.825Z,35.57
2018-10-09T09:25:43.508Z,30.90
2018-10-09T09:28:13.281Z,26.93
2018-10-09T09:30:43.000Z,29.47
2018-10-09T09:33:12.858Z,26.73
2018-10-09T09:35:42.360Z,25.43
2018-10-09T09:38:11.908Z,23.47
2018-10-09T09:40:41.702Z,22.20
2018-10-09T09:43:11.309Z,23.87
2018-10-09T09:45:41.051Z,24.60
2018-10-09T09:48:10.979Z,27.63
2018-10-09T09:50:40.970Z,26.47
2018-10-09T09:53:10.719Z,30.33
2018-10-09T09:55:40.339Z,26.30
2018-10-09T09:58:10.242Z,25.13
2018-10-09T10:00:44.923Z,31.30
2018-10-09T10:03:14.531Z,32.73
2018-10-09T10:05:44.443Z,25.33
2018-10-09T10:08:14.111Z,29.90
2018-10-09T10:10:43.884Z,22.60
2018-10-09T10:13:13.510Z,25.10
2018-10-09T10:15:43.211Z,28.77
2018-10-09T10:18:13.050Z,22.30
2018-10-09T10:20:42.683Z,52.90
2018-10-09T10:23:12.329Z,39.97
2018-10-09T10:25:41.958Z,27.90
2018-10-09T10:28:11.662Z,27.63
2018-10-09T10:30:41.453Z,31.73
2018-10-09T10:33:12.286Z,24.50
2018-10-09T10:35:43.194Z,33.33
2018-10-09T10:38:12.733Z,27.03
2018-10-09T10:40:42.329Z,29.40
2018-10-09T10:43:11.991Z,31.33
2018-10-09T10:45:41.878Z,25.90
2018-10-09T10:48:11.628Z,27.32
2018-10-09T10:50:41.303Z,27.45
2018-10-09T10:53:11.129Z,24.27
2018-10-09T10:55:41.494Z,30.27
2018-10-09T10:58:11.328Z,24.20
2018-10-09T11:00:40.958Z,29.47
2018-10-09T11:03:10.584Z,29.18
2018-10-09T11:05:40.428Z,27.00
2018-10-09T11:08:10.186Z,26.00
2018-10-09T11:10:39.678Z,28.73
2018-10-09T11:13:09.404Z,29.50
2018-10-09T11:15:39.039Z,30.20
2018-10-09T11:18:09.015Z,30.77
2018-10-09T11:20:38.610Z,26.47
2018-10-09T11:23:08.438Z,27.97
2018-10-09T11:25:38.040Z,26.90
2018-10-09T11:28:08.173Z,28.83
2018-10-09T11:30:37.862Z,23.50
2018-10-09T11:33:07.660Z,23.33
2018-10-09T11:35:37.302Z,24.10
2018-10-09T11:38:06.838Z,29.07
2018-10-09T11:40:36.485Z,25.27
2018-10-09T11:43:06.539Z,22.77
2018-10-09T11:45:36.177Z,25.93
2018-10-09T11:48:05.790Z,22.97
2018-10-09T11:50:35.550Z,21.10
2018-10-09T11:53:05.353Z,20.17
2018-10-09T11:55:35.277Z,20.40
2018-10-09T11:58:05.068Z,18.83
2018-10-09T12:00:36.577Z,22.20
2018-10-09T12:03:06.564Z,23.67
2018-10-09T12:05:36.527Z,14.80
2018-10-09T12:08:06.198Z,16.40
2018-10-09T12:10:35.925Z,15.50
2018-10-09T12:13:05.495Z,12.13
2018-10-09T12:15:35.208Z,13.22
2018-10-09T12:18:04.865Z,13.00
2018-10-09T12:20:34.671Z,11.73
2018-10-09T12:23:04.328Z,15.10
2018-10-09T12:25:34.034Z,10.80
2018-10-09T12:28:03.604Z,12.20
2018-10-09T12:30:33.338Z,13.03
2018-10-09T12:33:03.276Z,11.60
2018-10-09T12:35:33.183Z,11.43
2018-10-09T12:38:03.249Z,14.67
2018-10-09T12:40:33.320Z,9.33
2018-10-09T12:43:02.933Z,9.93
2018-10-09T12:45:32.764Z,12.13
2018-10-09T12:48:02.442Z,11.93
2018-10-09T12:50:32.110Z,9.67
2018-10-09T12:53:01.841Z,9.40
2018-10-09T12:55:32.388Z,11.57
2018-10-09T12:58:02.131Z,7.80
2018-10-09T13:00:31.922Z,7.83
2018-10-09T13:03:02.285Z,10.53
2018-10-09T13:05:31.994Z,11.65
2018-10-09T13:08:02.317Z,9.28
2018-10-09T13:10:31.969Z,7.92
2018-10-09T13:13:02.040Z,7.10
2018-10-09T13:15:32.102Z,9.13
2018-10-09T13:18:02.264Z,8.33
2018-10-09T13:20:32.227Z,9.03
2018-10-09T13:23:02.449Z,5.80
2018-10-09T13:25:32.414Z,5.92
2018-10-09T13:28:02.289Z,6.58
2018-10-09T13:30:32.618Z,6.35
2018-10-09T13:33:02.627Z,5.95
2018-10-09T13:35:32.495Z,7.83
2018-10-09T13:38:02.755Z,8.93
2018-10-09T13:40:32.613Z,6.47
2018-10-09T13:43:02.882Z,6.35
2018-10-09T13:45:32.783Z,8.13
2018-10-09T13:48:02.905Z,5.35
2018-10-09T13:50:32.986Z,4.23
2018-10-09T13:53:02.968Z,6.03
2018-10-09T13:55:32.560Z,6.80
2018-10-09T13:58:02.313Z,7.27
2018-10-09T14:00:32.220Z,5.50
2018-10-09T14:03:01.995Z,7.33
2018-10-09T14:05:31.597Z,6.47
2018-10-09T14:08:01.469Z,5.33
2018-10-09T14:10:31.277Z,6.27
2018-10-09T14:13:01.329Z,3.70
2018-10-09T14:15:31.018Z,5.10
2018-10-09T14:18:00.864Z,5.60
2018-10-09T14:20:30.819Z,4.57
2018-10-09T14:23:00.694Z,6.90
2018-10-09T14:25:30.509Z,3.87
2018-10-09T14:28:00.121Z,4.00
2018-10-09T14:30:29.734Z,6.53
2018-10-09T14:32:59.387Z,7.67
2018-10-09T14:35:29.109Z,4.03
2018-10-09T14:37:58.754Z,4.00
2018-10-09T14:40:28.460Z,7.67
2018-10-09T14:42:58.034Z,5.12
2018-10-09T14:45:27.714Z,5.63
2018-10-09T14:47:57.503Z,6.10
2018-10-09T14:50:27.284Z,6.00
2018-10-09T14:52:56.983Z,5.67
2018-10-09T14:55:27.556Z,7.70
2018-10-09T14:57:57.473Z,4.17
2018-10-09T15:00:27.144Z,4.30
2018-10-09T15:02:56.694Z,10.03
2018-10-09T15:05:26.355Z,3.87
2018-10-09T15:07:56.265Z,7.50
2018-10-09T15:10:26.223Z,9.83
2018-10-09T15:12:56.165Z,9.60
2018-10-09T15:15:26.645Z,8.97
2018-10-09T15:17:56.283Z,10.53
2018-10-09T15:20:26.027Z,11.53
2018-10-09T15:22:55.818Z,9.40
2018-10-09T15:25:25.465Z,8.57
2018-10-09T15:27:55.084Z,9.50
2018-10-09T15:30:24.863Z,6.50
2018-10-09T15:32:54.659Z,9.73
2018-10-09T15:35:24.488Z,11.47
2018-10-09T15:37:54.123Z,8.37
2018-10-09T15:40:24.037Z,6.50
2018-10-09T15:42:53.741Z,11.70
2018-10-09T15:45:23.662Z,8.13
2018-10-09T15:47:53.984Z,7.83
2018-10-09T15:50:23.765Z,7.30
2018-10-09T15:52:53.786Z,7.77
2018-10-09T15:55:23.618Z,7.60
2018-10-09T15:57:53.445Z,8.10
2018-10-09T16:00:23.006Z,8.63
2018-10-09T16:02:53.115Z,5.30
2018-10-09T16:05:22.936Z,8.80
2018-10-09T16:07:52.677Z,10.27
2018-10-09T16:10:22.589Z,8.17
2018-10-09T16:12:52.361Z,7.07
2018-10-09T16:15:22.260Z,6.27
2018-10-09T16:17:52.120Z,7.93
2018-10-09T16:20:21.864Z,8.03
2018-10-09T16:22:51.650Z,8.15
2018-10-09T16:25:21.380Z,6.27
2018-10-09T16:27:51.249Z,10.07
2018-10-09T16:30:20.991Z,5.53
2018-10-09T16:32:51.071Z,8.70
2018-10-09T16:35:20.903Z,6.58
2018-10-09T16:37:50.714Z,6.47
2018-10-09T16:40:20.518Z,7.43
2018-10-09T16:42:50.273Z,8.13
2018-10-09T16:45:20.356Z,6.80
2018-10-09T16:47:50.228Z,8.95
2018-10-09T16:50:20.336Z,7.05
2018-10-09T16:52:50.143Z,10.23
2018-10-09T16:55:19.956Z,6.83
2018-10-09T16:57:49.844Z,8.30
2018-10-09T17:00:19.700Z,8.17
2018-10-09T17:02:49.617Z,12.20
2018-10-09T17:05:19.572Z,8.08
2018-10-09T17:07:49.267Z,10.03
2018-10-09T17:10:19.134Z,14.60
2018-10-09T17:12:48.980Z,13.58
2018-10-09T17:15:18.704Z,11.87
2018-10-09T17:17:48.275Z,9.43
2018-10-09T17:20:18.197Z,11.80
2018-10-09T17:22:47.934Z,14.93
2018-10-09T17:25:17.665Z,10.67
2018-10-09T17:27:47.472Z,12.47
2018-10-09T17:30:17.324Z,15.90
2018-10-09T17:32:46.978Z,10.00
2018-10-09T17:35:17.030Z,8.00
2018-10-09T17:37:47.200Z,13.63
2018-10-09T17:40:16.900Z,9.73
2018-10-09T17:42:46.659Z,12.17
2018-10-09T17:45:16.588Z,13.37
2018-10-09T17:47:46.434Z,11.90
2018-10-09T17:50:16.395Z,10.53
2018-10-09T17:52:46.166Z,7.33
2018-10-09T17:55:15.916Z,8.53
2018-10-09T17:57:46.474Z,9.78
2018-10-09T18:00:16.155Z,10.00
2018-10-09T18:02:46.052Z,13.97
2018-10-09T18:05:15.919Z,14.67
2018-10-09T18:07:45.535Z,8.90
2018-10-09T18:10:15.235Z,13.87
2018-10-09T18:12:45.220Z,13.37
2018-10-09T18:15:15.726Z,17.67
2018-10-09T18:17:45.836Z,16.90
2018-10-09T18:20:15.489Z,13.60
2018-10-09T18:22:45.310Z,14.60
2018-10-09T18:25:15.156Z,12.80
2018-10-09T18:27:44.750Z,17.30
2018-10-09T18:30:14.481Z,21.27
2018-10-09T18:32:44.667Z,26.17
2018-10-09T18:35:14.280Z,18.30
2018-10-09T18:37:43.961Z,17.17
2018-10-09T18:40:13.701Z,16.20
2018-10-09T18:42:43.366Z,18.82
2018-10-09T18:45:13.086Z,17.60
2018-10-09T18:47:44.794Z,19.43
2018-10-09T18:50:14.728Z,17.83
2018-10-09T18:52:44.484Z,18.47
2018-10-09T18:55:15.957Z,22.65
2018-10-09T18:57:46.270Z,23.80
2018-10-09T19:00:16.280Z,18.53
2018-10-09T19:02:46.195Z,17.97
2018-10-09T19:05:16.251Z,24.00
2018-10-09T19:07:46.241Z,85.60
2018-10-09T19:10:16.129Z,50.53
2018-10-09T19:12:46.022Z,23.63
2018-10-09T19:15:15.984Z,18.80
2018-10-09T19:17:45.810Z,21.30
2018-10-09T19:20:16.065Z,24.10
2018-10-09T19:22:46.060Z,23.93
2018-10-09T19:25:16.216Z,23.62
2018-10-09T19:27:46.171Z,21.47
2018-10-09T19:32:51.175Z,17.43
2018-10-09T19:35:21.225Z,18.45
2018-10-09T19:37:51.450Z,18.90
2018-10-09T19:40:21.422Z,17.83
2018-10-09T19:42:51.304Z,14.47
2018-10-09T19:45:21.321Z,20.23
2018-10-09T19:47:51.099Z,16.97
2018-10-09T19:50:20.786Z,18.43
2018-10-09T19:52:50.487Z,19.97
2018-10-09T19:55:20.405Z,21.47
2018-10-09T19:57:50.194Z,18.70
2018-10-09T20:00:20.174Z,20.70
2018-10-09T20:02:50.215Z,22.03
2018-10-09T20:05:19.914Z,17.00
2018-10-09T20:07:50.088Z,16.93
2018-10-09T20:10:19.972Z,20.77
2018-10-09T20:12:49.700Z,18.13
2018-10-09T20:15:19.522Z,20.60
2018-10-09T20:17:49.246Z,22.83
2018-10-09T20:20:19.076Z,16.27
2018-10-09T20:22:49.148Z,19.90
2018-10-09T20:25:18.991Z,18.15
2018-10-09T20:27:48.721Z,20.30
2018-10-09T20:30:18.491Z,13.18
2018-10-09T20:32:48.433Z,17.73
2018-10-09T20:35:18.167Z,19.33
2018-10-09T20:37:48.411Z,47.67
2018-10-09T20:40:18.541Z,44.33
2018-10-09T20:42:48.940Z,21.55
2018-10-09T20:45:18.638Z,17.45
2018-10-09T20:47:48.509Z,17.67
2018-10-09T20:50:18.323Z,18.70
2018-10-09T20:52:48.060Z,19.43
2018-10-09T20:55:18.347Z,23.57
2018-10-09T20:57:49.303Z,21.90
2018-10-09T21:00:20.297Z,19.90
2018-10-09T21:07:48.323Z,18.67
2018-10-09T21:10:18.868Z,21.97
2018-10-09T21:12:48.790Z,16.43
2018-10-09T21:15:20.129Z,20.20
2018-10-09T21:17:50.224Z,18.60
2018-10-09T21:20:19.853Z,16.63
2018-10-09T21:22:49.872Z,15.33
2018-10-09T21:25:19.837Z,17.83
2018-10-09T21:27:50.238Z,14.07
2018-10-09T21:30:20.400Z,15.93
2018-10-09T21:32:50.508Z,16.27
2018-10-09T21:35:20.750Z,17.45
2018-10-09T21:37:50.398Z,20.60
2018-10-09T21:40:20.991Z,18.37
2018-10-09T21:42:50.713Z,17.20
2018-10-09T21:45:20.258Z,16.53
2018-10-09T21:47:55.217Z,16.13
2018-10-09T21:50:26.746Z,13.43
2018-10-09T21:52:56.875Z,12.27
2018-10-09T21:55:27.047Z,12.47
2018-10-09T21:57:57.504Z,15.97
2018-10-09T22:00:27.278Z,15.10
2018-10-09T22:02:56.901Z,19.97
2018-10-09T22:05:26.586Z,34.98
2018-10-09T22:07:56.366Z,45.20
2018-10-09T22:10:26.033Z,29.32
2018-10-09T22:12:55.549Z,15.90
2018-10-09T22:15:25.201Z,15.77
2018-10-09T22:17:55.106Z,18.77
2018-10-09T22:20:24.700Z,16.60
2018-10-09T22:22:54.473Z,17.67
2018-10-09T22:25:24.145Z,15.17
2018-10-09T22:27:53.854Z,13.23
2018-10-09T22:30:23.608Z,14.17
2018-10-09T22:32:53.295Z,13.67
2018-10-09T22:35:23.313Z,14.15
2018-10-09T22:42:49.440Z,14.60
2018-10-09T22:45:18.999Z,20.93
2018-10-09T22:47:49.040Z,13.27
2018-10-09T22:50:18.805Z,16.27
2018-10-09T22:52:48.332Z,16.80
2018-10-09T22:55:18.004Z,23.30
2018-10-09T22:57:47.797Z,15.28
2018-10-09T23:00:17.620Z,14.90
2018-10-09T23:02:47.161Z,12.20
2018-10-09T23:05:16.680Z,16.77
2018-10-09T23:07:46.548Z,13.83
2018-10-09T23:10:16.375Z,16.93
2018-10-09T23:12:45.891Z,17.37
2018-10-09T23:15:15.722Z,15.23
2018-10-09T23:17:45.557Z,20.23
2018-10-09T23:20:15.091Z,14.67
2018-10-09T23:22:44.678Z,17.55
2018-10-09T23:25:14.239Z,15.37
2018-10-09T23:27:43.875Z,14.43
2018-10-09T23:30:13.432Z,17.77
2018-10-09T23:32:42.980Z,13.80
2018-10-09T23:35:13.724Z,19.12
2018-10-09T23:37:43.271Z,18.17
2018-10-09T23:40:12.915Z,15.83
2018-10-09T23:42:42.492Z,16.93
2018-10-09T23:45:12.121Z,13.63
2018-10-09T23:47:41.824Z,15.53
2018-10-09T23:50:12.702Z,16.37
2018-10-09T23:52:42.206Z,13.87
2018-10-09T23:55:11.409Z,15.27
2018-10-09T23:57:41.071Z,15.50
